»·PEaware :: N124AG KAVX-KSAN

N124AG :: KAVX-KSAN

FLIGHT INFORMATION

Flight Status: Arrived
Operator: Privately registered:
United States
More flights under this callsign
Pilot: Michael M. (17510)
Aircraft: CESSNA 172 SKYHAWK
(C172)
More flights by this aircraft type
Origin: KAVX Catalina
United States
Destination: KSAN San Diego Intl-Lindbergh
United States
More flights between these airports :: More routes between these airports
Route: +SXC V208 OCN V23 MZB
File this flight plan on PilotEdge
Remarks: TEC Route CSTP56 I8 Rating
Altitude:
(Current/Filed)
5,000ft
Speed:
(Current/Filed)
110kts
Departed: 09-Nov-18 09:07 AM
Arrived: 09-Nov-18 10:04 AM
Distance/Time
Traveled:
74nm/0:57
Distance/Time
To Go:
Arrived

Flight Plot

Page will automatically refresh every two minutes.


Map Options




Map Legend


Flown Route
Filed Route
Departure Airport
Arrival Airport
Navaid (VOR, NDB)
Fix

Horizontal Profiles

Position Reports

Time Latitude Longitude Heading Altitude Ground
Speed
09-Nov-18 09:00 33.403292 -118.415954 44 1551ft 0kts
09-Nov-18 09:01 33.403292 -118.415954 44 1551ft 0kts
09-Nov-18 09:02 33.403292 -118.415954 44 1551ft 0kts
09-Nov-18 09:03 33.403292 -118.415954 44 1551ft 0kts
09-Nov-18 09:04 33.403292 -118.415954 44 1551ft 0kts
09-Nov-18 09:05 33.403292 -118.415954 44 1551ft 0kts
09-Nov-18 09:06 33.404199 -118.415009 359 1544ft 7kts
09-Nov-18 09:07 33.406134 -118.413110 54 1519ft 16kts
09-Nov-18 09:08 33.407142 -118.411421 33 1500ft 0kts
09-Nov-18 09:09 33.407177 -118.411401 18 1499ft 4kts
09-Nov-18 09:10 33.399959 -118.424618 237 1740ft 97kts
09-Nov-18 09:11 33.383835 -118.450643 231 2621ft 98kts
09-Nov-18 09:12 33.364381 -118.461124 143 3622ft 85kts
09-Nov-18 09:13 33.360855 -118.439033 60 4611ft 74kts
09-Nov-18 09:14 33.372932 -118.413477 76 4997ft 117kts
09-Nov-18 09:15 33.369884 -118.372107 97 4997ft 128kts
09-Nov-18 09:16 33.363284 -118.329969 99 4997ft 129kts
09-Nov-18 09:17 33.357706 -118.287478 98 4997ft 129kts
09-Nov-18 09:18 33.352254 -118.245121 98 4997ft 129kts
09-Nov-18 09:19 33.346762 -118.202536 98 4997ft 129kts
09-Nov-18 09:20 33.341286 -118.160152 98 4997ft 129kts
09-Nov-18 09:21 33.335786 -118.117671 98 4997ft 129kts
09-Nov-18 09:22 33.330271 -118.075160 98 4997ft 129kts
09-Nov-18 09:23 33.324770 -118.032839 98 4997ft 129kts
09-Nov-18 09:24 33.319625 -117.990236 98 4997ft 129kts
09-Nov-18 09:25 33.314123 -117.947760 98 4997ft 129kts
09-Nov-18 09:26 33.308700 -117.905253 98 4997ft 129kts
09-Nov-18 09:27 33.303283 -117.862880 98 4997ft 129kts
09-Nov-18 09:28 33.297846 -117.820364 98 4997ft 129kts
09-Nov-18 09:29 33.292443 -117.777853 98 4997ft 129kts
09-Nov-18 09:30 33.287038 -117.735416 98 4997ft 129kts
09-Nov-18 09:31 33.281610 -117.692894 98 4997ft 129kts
09-Nov-18 09:32 33.275618 -117.650599 99 4997ft 129kts
09-Nov-18 09:33 33.269546 -117.608196 99 4997ft 129kts
09-Nov-18 09:34 33.263479 -117.565903 99 4997ft 129kts
09-Nov-18 09:35 33.257418 -117.523716 99 4997ft 129kts
09-Nov-18 09:36 33.251379 -117.481401 98 4997ft 129kts
09-Nov-18 09:37 33.245455 -117.439391 98 4997ft 129kts
09-Nov-18 09:38 33.225218 -117.408952 157 4996ft 129kts
09-Nov-18 09:39 33.191360 -117.394713 160 4997ft 129kts
09-Nov-18 09:40 33.157248 -117.380960 160 4997ft 129kts
09-Nov-18 09:41 33.123220 -117.367261 160 4997ft 129kts
09-Nov-18 09:42 33.089208 -117.353587 160 4997ft 129kts
09-Nov-18 09:43 33.055155 -117.339917 161 4997ft 129kts
09-Nov-18 09:44 33.021147 -117.326214 161 4997ft 129kts
09-Nov-18 09:45 32.987026 -117.312453 161 4997ft 129kts
09-Nov-18 09:46 32.953034 -117.298765 161 4997ft 129kts
09-Nov-18 09:47 32.918984 -117.285072 161 4997ft 129kts
09-Nov-18 09:48 32.884943 -117.271403 161 4997ft 129kts
09-Nov-18 09:49 32.851072 -117.257048 158 4997ft 129kts
09-Nov-18 09:50 32.817683 -117.241329 158 4997ft 129kts
09-Nov-18 09:51 32.784621 -117.224583 135 4996ft 129kts
09-Nov-18 09:52 32.775056 -117.183917 101 4997ft 129kts
09-Nov-18 09:53 32.767640 -117.142247 101 4997ft 129kts
09-Nov-18 09:54 32.760186 -117.100427 101 4997ft 129kts
09-Nov-18 09:55 32.752738 -117.058700 101 4997ft 129kts
09-Nov-18 09:56 32.745261 -117.016873 101 4997ft 129kts
09-Nov-18 09:57 32.737791 -116.975039 101 4997ft 129kts
09-Nov-18 09:58 32.730336 -116.933137 102 4996ft 129kts
09-Nov-18 09:59 32.699547 -116.928990 201 3954ft 129kts
09-Nov-18 10:00 32.678501 -116.954759 252 3807ft 125kts
09-Nov-18 10:01 32.685895 -116.992155 288 3615ft 114kts
09-Nov-18 10:02 32.694985 -117.028943 284 2698ft 103kts
09-Nov-18 10:03 32.702728 -117.065356 286 2048ft 125kts
09-Nov-18 10:04 32.711989 -117.101768 286 1851ft 116kts
09-Nov-18 10:05 32.721493 -117.140068 286 878ft 116kts
09-Nov-18 10:06 32.729907 -117.174503 286 181ft 98kts
09-Nov-18 10:07 32.733849 -117.188109 16 17ft 4kts
09-Nov-18 10:08 32.734629 -117.188013 349 17ft 11kts
09-Nov-18 10:09 32.735098 -117.188521 212 17ft 0kts
09-Nov-18 10:10 32.735098 -117.188521 212 17ft 0kts

Navigation Log

Ident Type
1. KAVX Airport
2. SXC Navaid
3. AVOLS Fix
4. PACIF Fix
5. HUBRD Fix
6. OCN Navaid
7. HURSI Fix
8. CARIF Fix
9. MZB Navaid
10. KSAN Airport